Normandie — FNNO — position and weather

sailwx.info

Track history (hours):
 
Tides and Currents Weather Stations Pressure Air Temp Water Temp Dewpoint Dewpoint Depression Visibility Wind Speed Wind Dir Waves Ship Positions

Normandie

Operator: Brittany Ferries

Last reported at 2019-Oct-15 07:00 UTC. Time now 2019-Oct-15 07:17 UTC.
Position N 49°19' W 000°15'.

Length 161 m; beam 27 m.

Type: Ship. MMSI: 227273000.

Date/timePositionNaut miles runAvg speedWind from/ knotsBaromVisibWave heightAir tempDewpointWater temp
2019-Oct-15 07:00N 49°19' W 000°15'1 2.8
2019-Oct-15 06:30N 49°17' W 000°15'0 0.0
2019-Oct-15 06:00N 49°17' W 000°15'0 0.0
2019-Oct-15 05:30N 49°17' W 000°15'0 0.0
2019-Oct-15 05:00N 49°17' W 000°15'0 0.3
2019-Oct-15 04:30N 49°17' W 000°15'715.0
2019-Oct-15 04:00N 49°25' W 000°17'917.2
2019-Oct-15 03:30N 49°33' W 000°22'917.3
2019-Oct-15 03:00N 49°41' W 000°26'815.3
2019-Oct-15 02:30N 49°48' W 000°30'5815.2
2019-Oct-14 22:42N 50°42' W 001°01'315.0
2019-Oct-14 22:30N 50°44' W 001°04'4 8.8
2019-Oct-14 22:00N 50°49' W 001°06'0 0.0
2019-Oct-14 21:30N 50°49' W 001°06'0 0.0
2019-Oct-14 21:00N 50°49' W 001°06'0 0.0
2019-Oct-14 20:30N 50°49' W 001°06'0 0.5
2019-Oct-14 20:00N 50°49' W 001°06'511.0
2019-Oct-14 19:30N 50°44' W 001°03'5119.1
2019-Oct-14 16:52N 49°56' W 000°36'719.7
2019-Oct-14 16:30N 49°49' W 000°32'1019.7
2019-Oct-14 16:00N 49°40' W 000°26'1019.3
2019-Oct-14 15:30N 49°31' W 000°21'1020.0
2019-Oct-14 15:00N 49°22' W 000°15'5 9.6
2019-Oct-14 14:30N 49°17' W 000°15'0 0.0
2019-Oct-14 14:00N 49°17' W 000°15'0 0.0
2019-Oct-14 13:30N 49°17' W 000°15'0 0.5
2019-Oct-14 13:00N 49°18' W 000°15'815.7
2019-Oct-14 12:30N 49°25' W 000°17'1019.0
2019-Oct-14 12:00N 49°34' W 000°24'1019.1
2019-Oct-14 11:30N 49°43' W 000°27'6119.4
2019-Oct-14 08:21N 50°40' W 000°60'617.9
2019-Oct-14 08:00N 50°45' W 001°05'3 6.5
2019-Oct-14 07:30N 50°49' W 001°06'0 0.0
2019-Oct-14 07:00N 50°49' W 001°06'0 0.0
2019-Oct-14 06:30N 50°49' W 001°06'0 0.0
2019-Oct-14 06:00N 50°49' W 001°06'0 0.2
2019-Oct-14 05:31N 50°49' W 001°06'5 9.8
2019-Oct-14 05:01N 50°44' W 001°04'814.5
2019-Oct-14 04:28N 50°37' W 000°58'4511.8
2019-Oct-14 00:39N 49°55' W 000°34'212.0
2019-Oct-14 00:30N 49°53' W 000°33'612.0
2019-Oct-14 00:00N 49°48' W 000°29'611.7
2019-Oct-13 23:30N 49°42' W 000°26'611.4
2019-Oct-13 23:00N 49°37' W 000°22'511.1
2019-Oct-13 22:31N 49°32' W 000°19'611.0
2019-Oct-13 22:00N 49°27' W 000°16'510.6
2019-Oct-13 21:30N 49°22' W 000°15'4 8.6
2019-Oct-13 21:00N 49°17' W 000°15'0 0.0
2019-Oct-13 20:30N 49°17' W 000°15'0 0.0
2019-Oct-13 20:01N 49°17' W 000°15'0 0.0
2019-Oct-13 19:31N 49°17' W 000°15'2 4.4
2019-Oct-13 19:00N 49°20' W 000°14'918.9
2019-Oct-13 18:30N 49°29' W 000°18'1019.5
2019-Oct-13 18:00N 49°38' W 000°23'1019.2
2019-Oct-13 17:30N 49°47' W 000°28'1018.8
2019-Oct-13 17:00N 49°56' W 000°33'5019.3
2019-Oct-13 14:24N 50°43' W 001°01'615.5
2019-Oct-13 14:01N 50°48' W 001°07'1 2.2
2019-Oct-13 13:30N 50°49' W 001°06'0 0.0
2019-Oct-13 13:00N 50°49' W 001°06'0 0.0
2019-Oct-13 12:31N 50°49' W 001°06'2 3.2
2019-Oct-13 12:01N 50°47' W 001°06'4 8.3
2019-Oct-13 11:31N 50°44' W 001°03'4718.5
2019-Oct-13 08:57N 49°60' W 000°35'819.2
2019-Oct-13 08:30N 49°52' W 000°31'1019.1
2019-Oct-13 08:01N 49°43' W 000°27'1019.1
2019-Oct-13 07:31N 49°33' W 000°22'918.3
2019-Oct-13 07:00N 49°25' W 000°17'815.5
2019-Oct-13 06:30N 49°17' W 000°15'0 0.1
2019-Oct-13 06:00N 49°17' W 000°15'0 0.0
2019-Oct-13 05:30N 49°17' W 000°15'0 0.0
2019-Oct-13 05:00N 49°17' W 000°15'0 0.2
2019-Oct-13 04:30N 49°17' W 000°15'714.7
2019-Oct-13 04:00N 49°25' W 000°15'815.2
2019-Oct-13 03:30N 49°32' W 000°20'714.9
2019-Oct-13 03:00N 49°39' W 000°24'714.5
2019-Oct-13 02:30N 49°45' W 000°28'5814.5
2019-Oct-12 22:32N 50°40' W 000°60'115.3
2019-Oct-12 22:29N 50°40' W 000°60'613.3
2019-Oct-12 22:00N 50°46' W 001°05'3 6.3
2019-Oct-12 21:30N 50°49' W 001°06'0 0.0
2019-Oct-12 21:00N 50°49' W 001°06'0 0.0
2019-Oct-12 20:30N 50°49' W 001°06'2 3.4
2019-Oct-12 20:00N 50°47' W 001°06'916.2
2019-Oct-12 19:25N 50°39' W 000°58'4319.1
2019-Oct-12 17:12N 49°59' W 000°36'419.4
2019-Oct-12 17:01N 49°56' W 000°34'1019.5
2019-Oct-12 16:31N 49°47' W 000°29'1019.7
2019-Oct-12 16:01N 49°37' W 000°24'1019.7
2019-Oct-12 15:30N 49°28' W 000°19'918.6
2019-Oct-12 15:01N 49°19' W 000°15'2 3.4
2019-Oct-12 14:30N 49°17' W 000°15'0 0.0
2019-Oct-12 14:00N 49°17' W 000°15'0 0.0
2019-Oct-12 13:30N 49°17' W 000°15'3 5.5
2019-Oct-12 13:00N 49°20' W 000°14'918.2
2019-Oct-12 12:31N 49°29' W 000°19'918.7
2019-Oct-12 12:01N 49°38' W 000°23'918.5
2019-Oct-12 11:31N 49°46' W 000°29'5719.6
2019-Oct-12 08:36N 50°39' W 000°60'217.6
2019-Oct-12 08:30N 50°41' W 001°01'715.2
2019-Oct-12 08:01N 50°48' W 001°07'1 2.4
2019-Oct-12 07:31N 50°49' W 001°06'0 0.0
2019-Oct-12 07:00N 50°49' W 001°06'0 0.0
2019-Oct-12 06:31N 50°49' W 001°06'0 0.0
2019-Oct-12 06:01N 50°49' W 001°06'0 0.2
2019-Oct-12 05:31N 50°49' W 001°06'4 8.8
2019-Oct-12 05:01N 50°44' W 001°04'4115.1
2019-Oct-12 02:18N 50°04' W 001°02'811.6
2019-Oct-12 01:38N 49°56' W 001°03'111.0
2019-Oct-12 01:30N 49°54' W 001°04'611.3
2019-Oct-12 01:00N 49°49' W 001°04'2111.3
2019-Oct-11 23:08N 49°33' W 000°42'211.9
2019-Oct-11 23:00N 49°32' W 000°40'611.6
2019-Oct-11 22:30N 49°29' W 000°32'611.2
2019-Oct-11 22:00N 49°26' W 000°25'611.0
2019-Oct-11 21:30N 49°22' W 000°19'5 9.7
2019-Oct-11 21:00N 49°18' W 000°15'1 2.2
2019-Oct-11 20:30N 49°17' W 000°15'0 0.0
2019-Oct-11 20:00N 49°17' W 000°15'0 0.0
2019-Oct-11 19:30N 49°17' W 000°15'4 8.9
2019-Oct-11 19:00N 49°22' W 000°15'1019.9
2019-Oct-11 18:30N 49°31' W 000°20'1019.7
2019-Oct-11 18:00N 49°41' W 000°24'1020.1
2019-Oct-11 17:30N 49°50' W 000°29'1019.9
2019-Oct-11 17:01N 49°59' W 000°35'4419.0
2019-Oct-11 14:41N 50°41' W 000°58'316.5
2019-Oct-11 14:30N 50°43' W 001°01'612.8
2019-Oct-11 14:00N 50°49' W 001°06'0 0.6
2019-Oct-11 13:30N 50°49' W 001°06'0 0.0
2019-Oct-11 13:01N 50°49' W 001°06'0 0.0
2019-Oct-11 12:30N 50°49' W 001°06'0 0.0
2019-Oct-11 12:00N 50°49' W 001°06'3 6.8
2019-Oct-11 11:31N 50°45' W 001°05'5719.0
2019-Oct-11 08:31N 49°53' W 000°32'019.1
2019-Oct-11 08:30N 49°52' W 000°32'1019.2
2019-Oct-11 08:01N 49°43' W 000°27'918.8
2019-Oct-11 07:31N 49°35' W 000°22'918.5
2019-Oct-11 07:01N 49°26' W 000°17'816.6
2019-Oct-11 06:30N 49°18' W 000°15'0 0.6
2019-Oct-11 06:00N 49°17' W 000°15'0 0.0
2019-Oct-11 05:30N 49°17' W 000°15'0 0.0
2019-Oct-11 05:00N 49°17' W 000°15'0 0.2
2019-Oct-11 04:30N 49°17' W 000°15'713.9
2019-Oct-11 04:00N 49°24' W 000°16'816.3
2019-Oct-11 03:30N 49°32' W 000°21'816.0
2019-Oct-11 03:00N 49°39' W 000°25'816.5
2019-Oct-11 02:30N 49°47' W 000°29'5515.1
2019-Oct-10 22:52N 50°38' W 001°03'613.2
2019-Oct-10 22:25N 50°43' W 001°03'512.9
2019-Oct-10 22:00N 50°48' W 001°07'1 1.7
2019-Oct-10 21:30N 50°49' W 001°06'0 0.0
2019-Oct-10 21:00N 50°49' W 001°06'0 0.0
2019-Oct-10 20:30N 50°49' W 001°06'1 2.4
2019-Oct-10 20:00N 50°48' W 001°07'816.2
2019-Oct-10 19:30N 50°41' W 001°00'4818.9
2019-Oct-10 16:57N 49°55' W 000°35'818.8
2019-Oct-10 16:30N 49°47' W 000°31'919.0
2019-Oct-10 16:00N 49°39' W 000°25'1019.0
2019-Oct-10 15:30N 49°30' W 000°19'1019.2
2019-Oct-10 15:00N 49°21' W 000°15'3 6.9
2019-Oct-10 14:30N 49°17' W 000°15'0 0.0
2019-Oct-10 14:00N 49°17' W 000°15'0 0.0
2019-Oct-10 13:30N 49°17' W 000°15'0 0.0
2019-Oct-10 13:00N 49°17' W 000°15'2 4.7
2019-Oct-10 12:30N 49°20' W 000°14'918.1
2019-Oct-10 12:00N 49°28' W 000°20'918.6
2019-Oct-10 11:30N 49°37' W 000°25'918.9
2019-Oct-10 11:00N 49°46' W 000°28'1019.1
2019-Oct-10 10:30N 49°55' W 000°32'5119.2
2019-Oct-10 07:51N 50°43' W 001°02'616.7
2019-Oct-10 07:30N 50°47' W 001°07'1 2.9
2019-Oct-10 07:00N 50°49' W 001°06'0 0.0
2019-Oct-10 06:30N 50°49' W 001°06'0 0.0
2019-Oct-10 06:00N 50°49' W 001°06'0 0.6
2019-Oct-10 05:30N 50°49' W 001°06'612.0
2019-Oct-10 05:00N 50°43' W 001°03'4014.6
2019-Oct-10 02:15N 50°03' W 001°02'314.3
2019-Oct-10 02:00N 49°60' W 001°02'714.4
2019-Oct-10 01:31N 49°52' W 001°03'714.8
2019-Oct-10 01:00N 49°45' W 001°05'1513.6
2019-Oct-09 23:55N 49°35' W 000°48'612.1
2019-Oct-09 23:25N 49°32' W 000°40'410.4
2019-Oct-09 23:00N 49°29' W 000°34'510.1
2019-Oct-09 22:30N 49°27' W 000°28'510.4
2019-Oct-09 22:00N 49°24' W 000°21'510.6
2019-Oct-09 21:30N 49°21' W 000°15'3 6.2
2019-Oct-09 20:58N 49°17' W 000°15'0 0.0
2019-Oct-09 20:28N 49°17' W 000°15'0 0.0
2019-Oct-09 19:58N 49°17' W 000°15'0 0.0
2019-Oct-09 19:28N 49°17' W 000°15'0 0.0
2019-Oct-09 18:58N 49°17' W 000°15'0 0.0
2019-Oct-09 18:28N 49°17' W 000°15'0 0.0
2019-Oct-09 17:58N 49°17' W 000°15'0 0.0
2019-Oct-09 17:28N 49°17' W 000°15'0 0.0
2019-Oct-09 16:58N 49°17' W 000°15'0 0.0
2019-Oct-09 16:28N 49°17' W 000°15'0 0.0
2019-Oct-09 15:58N 49°17' W 000°15'0 0.0
2019-Oct-09 15:28N 49°17' W 000°15'0 0.0
2019-Oct-09 14:58N 49°17' W 000°15'0 0.0
2019-Oct-09 14:29N 49°17' W 000°15'0 0.0
2019-Oct-09 14:00N 49°17' W 000°15'0 0.0
2019-Oct-09 13:30N 49°17' W 000°15'0 0.0
2019-Oct-09 13:00N 49°17' W 000°15'611.5
2019-Oct-09 12:30N 49°23' W 000°15'1019.0
2019-Oct-09 12:00N 49°31' W 000°22'918.8
2019-Oct-09 11:31N 49°41' W 000°26'918.8
2019-Oct-09 11:00N 49°49' W 000°30'5618.9
2019-Oct-09 08:02N 50°42' W 001°01'117.3
2019-Oct-09 08:00N 50°42' W 001°01'713.9
2019-Oct-09 07:31N 50°49' W 001°07'1 1.1
2019-Oct-09 07:00N 50°49' W 001°06'0 0.0
2019-Oct-09 06:30N 50°49' W 001°06'0 0.0
2019-Oct-09 06:00N 50°49' W 001°06'0 0.1
2019-Oct-09 05:31N 50°49' W 001°06'511.0
2019-Oct-09 05:00N 50°44' W 001°03'5113.2
2019-Oct-09 01:10N 49°56' W 000°36'210.2
2019-Oct-09 01:00N 49°54' W 000°35'510.2
2019-Oct-09 00:30N 49°49' W 000°33'510.4
2019-Oct-09 00:00N 49°45' W 000°30'510.6
2019-Oct-08 23:30N 49°40' W 000°27'510.6
2019-Oct-08 23:00N 49°35' W 000°24'510.9
2019-Oct-08 22:30N 49°30' W 000°20'611.2
2019-Oct-08 22:00N 49°25' W 000°17'510.8
2019-Oct-08 21:30N 49°20' W 000°15'2 4.3
2019-Oct-08 21:01N 49°17' W 000°15'0 0.0
2019-Oct-08 20:31N 49°17' W 000°15'0 0.0
2019-Oct-08 20:00N 49°17' W 000°15'0 0.0
2019-Oct-08 19:30N 49°17' W 000°15'5 9.0
2019-Oct-08 19:00N 49°22' W 000°14'917.2
2019-Oct-08 18:30N 49°30' W 000°20'917.2
2019-Oct-08 18:00N 49°38' W 000°24'917.2
2019-Oct-08 17:31N 49°46' W 000°28'1018.6
2019-Oct-08 16:59N 49°55' W 000°33'5018.8
2019-Oct-08 14:21N 50°41' W 001°00'617.7
2019-Oct-08 14:01N 50°46' W 001°06'2 4.5
2019-Oct-08 13:30N 50°49' W 001°06'0 0.0
2019-Oct-08 13:00N 50°49' W 001°06'0 0.0
2019-Oct-08 12:30N 50°49' W 001°06'1 1.4
2019-Oct-08 12:01N 50°48' W 001°07'714.5
2019-Oct-08 11:30N 50°42' W 001°01'5019.5
2019-Oct-08 08:57N 49°55' W 000°36'919.9
2019-Oct-08 08:30N 49°46' W 000°32'1019.8
2019-Oct-08 08:00N 49°37' W 000°27'1019.6
2019-Oct-08 07:30N 49°29' W 000°19'918.9
2019-Oct-08 07:00N 49°20' W 000°14'2 4.7
2019-Oct-08 06:30N 49°17' W 000°15'0 0.0
2019-Oct-08 06:00N 49°17' W 000°15'0 0.0
2019-Oct-08 05:30N 49°17' W 000°15'0 0.0
2019-Oct-08 05:00N 49°17' W 000°15'0 0.3
2019-Oct-08 04:31N 49°17' W 000°15'714.7
2019-Oct-08 04:01N 49°24' W 000°17'815.9
2019-Oct-08 03:30N 49°32' W 000°22'815.7
2019-Oct-08 03:00N 49°39' W 000°25'815.9
2019-Oct-08 02:31N 49°47' W 000°30'1515.7
2019-Oct-08 01:33N 50°01' W 000°38'115.4
2019-Oct-08 01:28N 50°02' W 000°39'4215.1
2019-Oct-07 22:42N 50°41' W 001°00'314.6
2019-Oct-07 22:30N 50°44' W 001°03'510.8
2019-Oct-07 22:00N 50°49' W 001°06'0 0.1
2019-Oct-07 21:30N 50°49' W 001°06'0 0.0
2019-Oct-07 21:00N 50°49' W 001°06'0 0.0
2019-Oct-07 20:30N 50°49' W 001°06'1 1.6
2019-Oct-07 20:00N 50°48' W 001°07'714.6
2019-Oct-07 19:31N 50°42' W 001°01'5119.5
2019-Oct-07 16:54N 49°55' W 000°31'819.7
2019-Oct-07 16:30N 49°47' W 000°27'1019.6
2019-Oct-07 16:01N 49°38' W 000°22'1019.5
2019-Oct-07 15:31N 49°30' W 000°15'918.5
2019-Oct-07 15:01N 49°20' W 000°14'3 6.0
2019-Oct-07 14:30N 49°17' W 000°15'0 0.0
2019-Oct-07 14:00N 49°17' W 000°15'0 0.0
2019-Oct-07 13:30N 49°17' W 000°15'0 0.0
2019-Oct-07 13:00N 49°17' W 000°15'5 9.9
2019-Oct-07 12:31N 49°22' W 000°15'1019.5
2019-Oct-07 12:01N 49°31' W 000°21'1019.1
2019-Oct-07 11:30N 49°40' W 000°28'917.9
2019-Oct-07 11:00N 49°48' W 000°33'917.9
2019-Oct-07 10:30N 49°56' W 000°38'4718.4
2019-Oct-07 07:57N 50°41' W 000°60'716.5
2019-Oct-07 07:30N 50°47' W 001°06'2 3.0
2019-Oct-07 07:00N 50°49' W 001°06'0 0.0
2019-Oct-07 06:30N 50°49' W 001°06'0 0.0
2019-Oct-07 06:00N 50°49' W 001°06'0 0.2
2019-Oct-07 05:30N 50°49' W 001°06'510.6
2019-Oct-07 05:01N 50°44' W 001°03'5114.7
2019-Oct-07 01:32N 49°56' W 000°37'813.7
2019-Oct-07 00:59N 49°48' W 000°33'613.8
2019-Oct-07 00:30N 49°42' W 000°29'510.6
2019-Oct-07 00:00N 49°37' W 000°26'5 9.6
2019-Oct-06 23:30N 49°33' W 000°22'5 9.6
2019-Oct-06 23:00N 49°29' W 000°19'5 9.7
2019-Oct-06 22:30N 49°24' W 000°16'5 9.2
2019-Oct-06 22:00N 49°20' W 000°14'2 4.9
2019-Oct-06 21:30N 49°17' W 000°15'0 0.0
2019-Oct-06 21:00N 49°17' W 000°15'0 0.0
2019-Oct-06 20:30N 49°17' W 000°15'0 0.0
2019-Oct-06 20:00N 49°17' W 000°15'0 0.0
2019-Oct-06 19:30N 49°17' W 000°15'4 8.3
2019-Oct-06 19:01N 49°21' W 000°14'816.8
2019-Oct-06 18:30N 49°29' W 000°20'917.1
2019-Oct-06 18:00N 49°37' W 000°24'917.5
2019-Oct-06 17:30N 49°46' W 000°28'918.0
2019-Oct-06 17:00N 49°54' W 000°33'5219.1
2019-Oct-06 14:17N 50°43' W 001°02'517.7
2019-Oct-06 14:01N 50°47' W 001°06'2 4.1
2019-Oct-06 13:30N 50°49' W 001°06'0 0.0
2019-Oct-06 13:00N 50°49' W 001°06'0 0.0
2019-Oct-06 12:30N 50°49' W 001°06'1 2.0
2019-Oct-06 12:00N 50°48' W 001°07'713.6
2019-Oct-06 11:30N 50°42' W 001°01'4718.2
2019-Oct-06 08:57N 49°58' W 000°39'818.0
2019-Oct-06 08:30N 49°50' W 000°34'918.1
2019-Oct-06 08:00N 49°42' W 000°29'918.3
2019-Oct-06 07:30N 49°34' W 000°23'918.5
2019-Oct-06 07:00N 49°25' W 000°17'816.2
2019-Oct-06 06:30N 49°17' W 000°15'0 0.2
2019-Oct-06 06:00N 49°17' W 000°15'0 0.0
2019-Oct-06 05:30N 49°17' W 000°15'0 0.0
2019-Oct-06 05:00N 49°17' W 000°15'0 0.2
2019-Oct-06 04:31N 49°17' W 000°15'816.1
2019-Oct-06 04:00N 49°25' W 000°16'816.2
2019-Oct-06 03:31N 49°33' W 000°21'816.1
2019-Oct-06 03:00N 49°40' W 000°26'815.6
2019-Oct-06 02:30N 49°48' W 000°30'5714.8
2019-Oct-05 22:40N 50°42' W 000°58'214.9
2019-Oct-05 22:30N 50°43' W 001°00'612.9
2019-Oct-05 22:00N 50°48' W 001°07'1 1.7
2019-Oct-05 21:30N 50°49' W 001°06'0 0.0
2019-Oct-05 21:01N 50°49' W 001°06'0 0.0
2019-Oct-05 20:30N 50°49' W 001°06'1 1.9
2019-Oct-05 20:01N 50°48' W 001°07'714.0
2019-Oct-05 19:30N 50°42' W 001°01'4817.2
2019-Oct-05 16:43N 49°57' W 000°35'418.7
2019-Oct-05 16:30N 49°53' W 000°33'918.6
2019-Oct-05 16:00N 49°45' W 000°27'1019.6
2019-Oct-05 15:30N 49°36' W 000°22'1019.6
2019-Oct-05 15:00N 49°26' W 000°17'917.3
2019-Oct-05 14:30N 49°18' W 000°15'1 1.1
2019-Oct-05 14:00N 49°17' W 000°15'0 0.0
2019-Oct-05 13:30N 49°17' W 000°15'0 0.0
2019-Oct-05 13:00N 49°17' W 000°15'5 9.9
2019-Oct-05 12:31N 49°22' W 000°14'918.7
2019-Oct-05 12:01N 49°31' W 000°21'918.9
2019-Oct-05 11:30N 49°39' W 000°28'919.0
2019-Oct-05 11:00N 49°48' W 000°33'5618.6
2019-Oct-05 08:01N 50°41' W 000°58'117.7
2019-Oct-05 07:57N 50°42' W 000°59'716.6
2019-Oct-05 07:31N 50°48' W 001°07'1 2.6
2019-Oct-05 07:01N 50°49' W 001°06'  
Track history (hours):
 
Tides and Currents Weather Stations Pressure Air Temp Water Temp Dewpoint Dewpoint Depression Visibility Wind Speed Wind Dir Waves Ship Positions

Normandie

Operator: Brittany Ferries

Last reported at 2019-Oct-15 07:00 UTC. Time now 2019-Oct-15 07:17 UTC.
Position N 49°19' W 000°15'.

Length 161 m; beam 27 m.

Type: Ship. MMSI: 227273000.

Date/timePositionNaut miles runAvg speedWind from/ knotsBaromVisibWave heightAir tempDewpointWater temp
2019-Oct-15 07:00N 49°19' W 000°15'1 2.8
2019-Oct-15 06:30N 49°17' W 000°15'0 0.0
2019-Oct-15 06:00N 49°17' W 000°15'0 0.0
2019-Oct-15 05:30N 49°17' W 000°15'0 0.0
2019-Oct-15 05:00N 49°17' W 000°15'0 0.3
2019-Oct-15 04:30N 49°17' W 000°15'715.0
2019-Oct-15 04:00N 49°25' W 000°17'917.2
2019-Oct-15 03:30N 49°33' W 000°22'917.3
2019-Oct-15 03:00N 49°41' W 000°26'815.3
2019-Oct-15 02:30N 49°48' W 000°30'5815.2
2019-Oct-14 22:42N 50°42' W 001°01'315.0
2019-Oct-14 22:30N 50°44' W 001°04'4 8.8
2019-Oct-14 22:00N 50°49' W 001°06'0 0.0
2019-Oct-14 21:30N 50°49' W 001°06'0 0.0
2019-Oct-14 21:00N 50°49' W 001°06'0 0.0
2019-Oct-14 20:30N 50°49' W 001°06'0 0.5
2019-Oct-14 20:00N 50°49' W 001°06'511.0
2019-Oct-14 19:30N 50°44' W 001°03'5119.1
2019-Oct-14 16:52N 49°56' W 000°36'719.7
2019-Oct-14 16:30N 49°49' W 000°32'1019.7
2019-Oct-14 16:00N 49°40' W 000°26'1019.3
2019-Oct-14 15:30N 49°31' W 000°21'1020.0
2019-Oct-14 15:00N 49°22' W 000°15'5 9.6
2019-Oct-14 14:30N 49°17' W 000°15'0 0.0
2019-Oct-14 14:00N 49°17' W 000°15'0 0.0
2019-Oct-14 13:30N 49°17' W 000°15'0 0.5
2019-Oct-14 13:00N 49°18' W 000°15'815.7
2019-Oct-14 12:30N 49°25' W 000°17'1019.0
2019-Oct-14 12:00N 49°34' W 000°24'1019.1
2019-Oct-14 11:30N 49°43' W 000°27'6119.4
2019-Oct-14 08:21N 50°40' W 000°60'617.9
2019-Oct-14 08:00N 50°45' W 001°05'3 6.5
2019-Oct-14 07:30N 50°49' W 001°06'0 0.0
2019-Oct-14 07:00N 50°49' W 001°06'0 0.0
2019-Oct-14 06:30N 50°49' W 001°06'0 0.0
2019-Oct-14 06:00N 50°49' W 001°06'0 0.2
2019-Oct-14 05:31N 50°49' W 001°06'5 9.8
2019-Oct-14 05:01N 50°44' W 001°04'814.5
2019-Oct-14 04:28N 50°37' W 000°58'4511.8
2019-Oct-14 00:39N 49°55' W 000°34'212.0
2019-Oct-14 00:30N 49°53' W 000°33'612.0
2019-Oct-14 00:00N 49°48' W 000°29'611.7
2019-Oct-13 23:30N 49°42' W 000°26'611.4
2019-Oct-13 23:00N 49°37' W 000°22'511.1
2019-Oct-13 22:31N 49°32' W 000°19'611.0
2019-Oct-13 22:00N 49°27' W 000°16'510.6
2019-Oct-13 21:30N 49°22' W 000°15'4 8.6
2019-Oct-13 21:00N 49°17' W 000°15'0 0.0
2019-Oct-13 20:30N 49°17' W 000°15'0 0.0
2019-Oct-13 20:01N 49°17' W 000°15'0 0.0
2019-Oct-13 19:31N 49°17' W 000°15'2 4.4
2019-Oct-13 19:00N 49°20' W 000°14'918.9
2019-Oct-13 18:30N 49°29' W 000°18'1019.5
2019-Oct-13 18:00N 49°38' W 000°23'1019.2
2019-Oct-13 17:30N 49°47' W 000°28'1018.8
2019-Oct-13 17:00N 49°56' W 000°33'5019.3
2019-Oct-13 14:24N 50°43' W 001°01'615.5
2019-Oct-13 14:01N 50°48' W 001°07'1 2.2
2019-Oct-13 13:30N 50°49' W 001°06'0 0.0
2019-Oct-13 13:00N 50°49' W 001°06'0 0.0
2019-Oct-13 12:31N 50°49' W 001°06'2 3.2
2019-Oct-13 12:01N 50°47' W 001°06'4 8.3
2019-Oct-13 11:31N 50°44' W 001°03'4718.5
2019-Oct-13 08:57N 49°60' W 000°35'819.2
2019-Oct-13 08:30N 49°52' W 000°31'1019.1
2019-Oct-13 08:01N 49°43' W 000°27'1019.1
2019-Oct-13 07:31N 49°33' W 000°22'918.3
2019-Oct-13 07:00N 49°25' W 000°17'815.5
2019-Oct-13 06:30N 49°17' W 000°15'0 0.1
2019-Oct-13 06:00N 49°17' W 000°15'0 0.0
2019-Oct-13 05:30N 49°17' W 000°15'0 0.0
2019-Oct-13 05:00N 49°17' W 000°15'0 0.2
2019-Oct-13 04:30N 49°17' W 000°15'714.7
2019-Oct-13 04:00N 49°25' W 000°15'815.2
2019-Oct-13 03:30N 49°32' W 000°20'714.9
2019-Oct-13 03:00N 49°39' W 000°24'714.5
2019-Oct-13 02:30N 49°45' W 000°28'5814.5
2019-Oct-12 22:32N 50°40' W 000°60'115.3
2019-Oct-12 22:29N 50°40' W 000°60'613.3
2019-Oct-12 22:00N 50°46' W 001°05'3 6.3
2019-Oct-12 21:30N 50°49' W 001°06'0 0.0
2019-Oct-12 21:00N 50°49' W 001°06'0 0.0
2019-Oct-12 20:30N 50°49' W 001°06'2 3.4
2019-Oct-12 20:00N 50°47' W 001°06'916.2
2019-Oct-12 19:25N 50°39' W 000°58'4319.1
2019-Oct-12 17:12N 49°59' W 000°36'419.4
2019-Oct-12 17:01N 49°56' W 000°34'1019.5
2019-Oct-12 16:31N 49°47' W 000°29'1019.7
2019-Oct-12 16:01N 49°37' W 000°24'1019.7
2019-Oct-12 15:30N 49°28' W 000°19'918.6
2019-Oct-12 15:01N 49°19' W 000°15'2 3.4
2019-Oct-12 14:30N 49°17' W 000°15'0 0.0
2019-Oct-12 14:00N 49°17' W 000°15'0 0.0
2019-Oct-12 13:30N 49°17' W 000°15'3 5.5
2019-Oct-12 13:00N 49°20' W 000°14'918.2
2019-Oct-12 12:31N 49°29' W 000°19'918.7
2019-Oct-12 12:01N 49°38' W 000°23'918.5
2019-Oct-12 11:31N 49°46' W 000°29'5719.6
2019-Oct-12 08:36N 50°39' W 000°60'217.6
2019-Oct-12 08:30N 50°41' W 001°01'715.2
2019-Oct-12 08:01N 50°48' W 001°07'1 2.4
2019-Oct-12 07:31N 50°49' W 001°06'0 0.0
2019-Oct-12 07:00N 50°49' W 001°06'0 0.0
2019-Oct-12 06:31N 50°49' W 001°06'0 0.0
2019-Oct-12 06:01N 50°49' W 001°06'0 0.2
2019-Oct-12 05:31N 50°49' W 001°06'4 8.8
2019-Oct-12 05:01N 50°44' W 001°04'4115.1
2019-Oct-12 02:18N 50°04' W 001°02'811.6
2019-Oct-12 01:38N 49°56' W 001°03'111.0
2019-Oct-12 01:30N 49°54' W 001°04'611.3
2019-Oct-12 01:00N 49°49' W 001°04'2111.3
2019-Oct-11 23:08N 49°33' W 000°42'211.9
2019-Oct-11 23:00N 49°32' W 000°40'611.6
2019-Oct-11 22:30N 49°29' W 000°32'611.2
2019-Oct-11 22:00N 49°26' W 000°25'611.0
2019-Oct-11 21:30N 49°22' W 000°19'5 9.7
2019-Oct-11 21:00N 49°18' W 000°15'1 2.2
2019-Oct-11 20:30N 49°17' W 000°15'0 0.0
2019-Oct-11 20:00N 49°17' W 000°15'0 0.0
2019-Oct-11 19:30N 49°17' W 000°15'4 8.9
2019-Oct-11 19:00N 49°22' W 000°15'1019.9
2019-Oct-11 18:30N 49°31' W 000°20'1019.7
2019-Oct-11 18:00N 49°41' W 000°24'1020.1
2019-Oct-11 17:30N 49°50' W 000°29'1019.9
2019-Oct-11 17:01N 49°59' W 000°35'4419.0
2019-Oct-11 14:41N 50°41' W 000°58'316.5
2019-Oct-11 14:30N 50°43' W 001°01'612.8
2019-Oct-11 14:00N 50°49' W 001°06'0 0.6
2019-Oct-11 13:30N 50°49' W 001°06'0 0.0
2019-Oct-11 13:01N 50°49' W 001°06'0 0.0
2019-Oct-11 12:30N 50°49' W 001°06'0 0.0
2019-Oct-11 12:00N 50°49' W 001°06'3 6.8
2019-Oct-11 11:31N 50°45' W 001°05'5719.0
2019-Oct-11 08:31N 49°53' W 000°32'019.1
2019-Oct-11 08:30N 49°52' W 000°32'1019.2
2019-Oct-11 08:01N 49°43' W 000°27'918.8
2019-Oct-11 07:31N 49°35' W 000°22'918.5
2019-Oct-11 07:01N 49°26' W 000°17'816.6
2019-Oct-11 06:30N 49°18' W 000°15'0 0.6
2019-Oct-11 06:00N 49°17' W 000°15'0 0.0
2019-Oct-11 05:30N 49°17' W 000°15'0 0.0
2019-Oct-11 05:00N 49°17' W 000°15'0 0.2
2019-Oct-11 04:30N 49°17' W 000°15'713.9
2019-Oct-11 04:00N 49°24' W 000°16'816.3
2019-Oct-11 03:30N 49°32' W 000°21'816.0
2019-Oct-11 03:00N 49°39' W 000°25'816.5
2019-Oct-11 02:30N 49°47' W 000°29'5515.1
2019-Oct-10 22:52N 50°38' W 001°03'613.2
2019-Oct-10 22:25N 50°43' W 001°03'512.9
2019-Oct-10 22:00N 50°48' W 001°07'1 1.7
2019-Oct-10 21:30N 50°49' W 001°06'0 0.0
2019-Oct-10 21:00N 50°49' W 001°06'0 0.0
2019-Oct-10 20:30N 50°49' W 001°06'1 2.4
2019-Oct-10 20:00N 50°48' W 001°07'816.2
2019-Oct-10 19:30N 50°41' W 001°00'4818.9
2019-Oct-10 16:57N 49°55' W 000°35'818.8
2019-Oct-10 16:30N 49°47' W 000°31'919.0
2019-Oct-10 16:00N 49°39' W 000°25'1019.0
2019-Oct-10 15:30N 49°30' W 000°19'1019.2
2019-Oct-10 15:00N 49°21' W 000°15'3 6.9
2019-Oct-10 14:30N 49°17' W 000°15'0 0.0
2019-Oct-10 14:00N 49°17' W 000°15'0 0.0
2019-Oct-10 13:30N 49°17' W 000°15'0 0.0
2019-Oct-10 13:00N 49°17' W 000°15'2 4.7
2019-Oct-10 12:30N 49°20' W 000°14'918.1
2019-Oct-10 12:00N 49°28' W 000°20'918.6
2019-Oct-10 11:30N 49°37' W 000°25'918.9
2019-Oct-10 11:00N 49°46' W 000°28'1019.1
2019-Oct-10 10:30N 49°55' W 000°32'5119.2
2019-Oct-10 07:51N 50°43' W 001°02'616.7
2019-Oct-10 07:30N 50°47' W 001°07'1 2.9
2019-Oct-10 07:00N 50°49' W 001°06'0 0.0
2019-Oct-10 06:30N 50°49' W 001°06'0 0.0
2019-Oct-10 06:00N 50°49' W 001°06'0 0.6
2019-Oct-10 05:30N 50°49' W 001°06'612.0
2019-Oct-10 05:00N 50°43' W 001°03'4014.6
2019-Oct-10 02:15N 50°03' W 001°02'314.3
2019-Oct-10 02:00N 49°60' W 001°02'714.4
2019-Oct-10 01:31N 49°52' W 001°03'714.8
2019-Oct-10 01:00N 49°45' W 001°05'1513.6
2019-Oct-09 23:55N 49°35' W 000°48'612.1
2019-Oct-09 23:25N 49°32' W 000°40'410.4
2019-Oct-09 23:00N 49°29' W 000°34'510.1
2019-Oct-09 22:30N 49°27' W 000°28'510.4
2019-Oct-09 22:00N 49°24' W 000°21'510.6
2019-Oct-09 21:30N 49°21' W 000°15'3 6.2
2019-Oct-09 20:58N 49°17' W 000°15'0 0.0
2019-Oct-09 20:28N 49°17' W 000°15'0 0.0
2019-Oct-09 19:58N 49°17' W 000°15'0 0.0
2019-Oct-09 19:28N 49°17' W 000°15'0 0.0
2019-Oct-09 18:58N 49°17' W 000°15'0 0.0
2019-Oct-09 18:28N 49°17' W 000°15'0 0.0
2019-Oct-09 17:58N 49°17' W 000°15'0 0.0
2019-Oct-09 17:28N 49°17' W 000°15'0 0.0
2019-Oct-09 16:58N 49°17' W 000°15'0 0.0
2019-Oct-09 16:28N 49°17' W 000°15'0 0.0
2019-Oct-09 15:58N 49°17' W 000°15'0 0.0
2019-Oct-09 15:28N 49°17' W 000°15'0 0.0
2019-Oct-09 14:58N 49°17' W 000°15'0 0.0
2019-Oct-09 14:29N 49°17' W 000°15'0 0.0
2019-Oct-09 14:00N 49°17' W 000°15'0 0.0
2019-Oct-09 13:30N 49°17' W 000°15'0 0.0
2019-Oct-09 13:00N 49°17' W 000°15'611.5
2019-Oct-09 12:30N 49°23' W 000°15'1019.0
2019-Oct-09 12:00N 49°31' W 000°22'918.8
2019-Oct-09 11:31N 49°41' W 000°26'918.8
2019-Oct-09 11:00N 49°49' W 000°30'5618.9
2019-Oct-09 08:02N 50°42' W 001°01'117.3
2019-Oct-09 08:00N 50°42' W 001°01'713.9
2019-Oct-09 07:31N 50°49' W 001°07'1 1.1
2019-Oct-09 07:00N 50°49' W 001°06'0 0.0
2019-Oct-09 06:30N 50°49' W 001°06'0 0.0
2019-Oct-09 06:00N 50°49' W 001°06'0 0.1
2019-Oct-09 05:31N 50°49' W 001°06'511.0
2019-Oct-09 05:00N 50°44' W 001°03'5113.2
2019-Oct-09 01:10N 49°56' W 000°36'210.2
2019-Oct-09 01:00N 49°54' W 000°35'510.2
2019-Oct-09 00:30N 49°49' W 000°33'510.4
2019-Oct-09 00:00N 49°45' W 000°30'510.6
2019-Oct-08 23:30N 49°40' W 000°27'510.6
2019-Oct-08 23:00N 49°35' W 000°24'510.9
2019-Oct-08 22:30N 49°30' W 000°20'611.2
2019-Oct-08 22:00N 49°25' W 000°17'510.8
2019-Oct-08 21:30N 49°20' W 000°15'2 4.3
2019-Oct-08 21:01N 49°17' W 000°15'0 0.0
2019-Oct-08 20:31N 49°17' W 000°15'0 0.0
2019-Oct-08 20:00N 49°17' W 000°15'0 0.0
2019-Oct-08 19:30N 49°17' W 000°15'5 9.0
2019-Oct-08 19:00N 49°22' W 000°14'917.2
2019-Oct-08 18:30N 49°30' W 000°20'917.2
2019-Oct-08 18:00N 49°38' W 000°24'917.2
2019-Oct-08 17:31N 49°46' W 000°28'1018.6
2019-Oct-08 16:59N 49°55' W 000°33'5018.8
2019-Oct-08 14:21N 50°41' W 001°00'617.7
2019-Oct-08 14:01N 50°46' W 001°06'2 4.5
2019-Oct-08 13:30N 50°49' W 001°06'0 0.0
2019-Oct-08 13:00N 50°49' W 001°06'0 0.0
2019-Oct-08 12:30N 50°49' W 001°06'1 1.4
2019-Oct-08 12:01N 50°48' W 001°07'714.5
2019-Oct-08 11:30N 50°42' W 001°01'5019.5
2019-Oct-08 08:57N 49°55' W 000°36'919.9
2019-Oct-08 08:30N 49°46' W 000°32'1019.8
2019-Oct-08 08:00N 49°37' W 000°27'1019.6
2019-Oct-08 07:30N 49°29' W 000°19'918.9
2019-Oct-08 07:00N 49°20' W 000°14'2 4.7
2019-Oct-08 06:30N 49°17' W 000°15'0 0.0
2019-Oct-08 06:00N 49°17' W 000°15'0 0.0
2019-Oct-08 05:30N 49°17' W 000°15'0 0.0
2019-Oct-08 05:00N 49°17' W 000°15'0 0.3
2019-Oct-08 04:31N 49°17' W 000°15'714.7
2019-Oct-08 04:01N 49°24' W 000°17'815.9
2019-Oct-08 03:30N 49°32' W 000°22'815.7
2019-Oct-08 03:00N 49°39' W 000°25'815.9
2019-Oct-08 02:31N 49°47' W 000°30'1515.7
2019-Oct-08 01:33N 50°01' W 000°38'115.4
2019-Oct-08 01:28N 50°02' W 000°39'4215.1
2019-Oct-07 22:42N 50°41' W 001°00'314.6
2019-Oct-07 22:30N 50°44' W 001°03'510.8
2019-Oct-07 22:00N 50°49' W 001°06'0 0.1
2019-Oct-07 21:30N 50°49' W 001°06'0 0.0
2019-Oct-07 21:00N 50°49' W 001°06'0 0.0
2019-Oct-07 20:30N 50°49' W 001°06'1 1.6
2019-Oct-07 20:00N 50°48' W 001°07'714.6
2019-Oct-07 19:31N 50°42' W 001°01'5119.5
2019-Oct-07 16:54N 49°55' W 000°31'819.7
2019-Oct-07 16:30N 49°47' W 000°27'1019.6
2019-Oct-07 16:01N 49°38' W 000°22'1019.5
2019-Oct-07 15:31N 49°30' W 000°15'918.5
2019-Oct-07 15:01N 49°20' W 000°14'3 6.0
2019-Oct-07 14:30N 49°17' W 000°15'0 0.0
2019-Oct-07 14:00N 49°17' W 000°15'0 0.0
2019-Oct-07 13:30N 49°17' W 000°15'0 0.0
2019-Oct-07 13:00N 49°17' W 000°15'5 9.9
2019-Oct-07 12:31N 49°22' W 000°15'1019.5
2019-Oct-07 12:01N 49°31' W 000°21'1019.1
2019-Oct-07 11:30N 49°40' W 000°28'917.9
2019-Oct-07 11:00N 49°48' W 000°33'917.9
2019-Oct-07 10:30N 49°56' W 000°38'4718.4
2019-Oct-07 07:57N 50°41' W 000°60'716.5
2019-Oct-07 07:30N 50°47' W 001°06'2 3.0
2019-Oct-07 07:00N 50°49' W 001°06'0 0.0
2019-Oct-07 06:30N 50°49' W 001°06'0 0.0
2019-Oct-07 06:00N 50°49' W 001°06'0 0.2
2019-Oct-07 05:30N 50°49' W 001°06'510.6
2019-Oct-07 05:01N 50°44' W 001°03'5114.7
2019-Oct-07 01:32N 49°56' W 000°37'813.7
2019-Oct-07 00:59N 49°48' W 000°33'613.8
2019-Oct-07 00:30N 49°42' W 000°29'510.6
2019-Oct-07 00:00N 49°37' W 000°26'5 9.6
2019-Oct-06 23:30N 49°33' W 000°22'5 9.6
2019-Oct-06 23:00N 49°29' W 000°19'5 9.7
2019-Oct-06 22:30N 49°24' W 000°16'5 9.2
2019-Oct-06 22:00N 49°20' W 000°14'2 4.9
2019-Oct-06 21:30N 49°17' W 000°15'0 0.0
2019-Oct-06 21:00N 49°17' W 000°15'0 0.0
2019-Oct-06 20:30N 49°17' W 000°15'0 0.0
2019-Oct-06 20:00N 49°17' W 000°15'0 0.0
2019-Oct-06 19:30N 49°17' W 000°15'4 8.3
2019-Oct-06 19:01N 49°21' W 000°14'816.8
2019-Oct-06 18:30N 49°29' W 000°20'917.1
2019-Oct-06 18:00N 49°37' W 000°24'917.5
2019-Oct-06 17:30N 49°46' W 000°28'918.0
2019-Oct-06 17:00N 49°54' W 000°33'5219.1
2019-Oct-06 14:17N 50°43' W 001°02'517.7
2019-Oct-06 14:01N 50°47' W 001°06'2 4.1
2019-Oct-06 13:30N 50°49' W 001°06'0 0.0
2019-Oct-06 13:00N 50°49' W 001°06'0 0.0
2019-Oct-06 12:30N 50°49' W 001°06'1 2.0
2019-Oct-06 12:00N 50°48' W 001°07'713.6
2019-Oct-06 11:30N 50°42' W 001°01'4718.2
2019-Oct-06 08:57N 49°58' W 000°39'818.0
2019-Oct-06 08:30N 49°50' W 000°34'918.1
2019-Oct-06 08:00N 49°42' W 000°29'918.3
2019-Oct-06 07:30N 49°34' W 000°23'918.5
2019-Oct-06 07:00N 49°25' W 000°17'816.2
2019-Oct-06 06:30N 49°17' W 000°15'0 0.2
2019-Oct-06 06:00N 49°17' W 000°15'0 0.0
2019-Oct-06 05:30N 49°17' W 000°15'0 0.0
2019-Oct-06 05:00N 49°17' W 000°15'0 0.2
2019-Oct-06 04:31N 49°17' W 000°15'816.1
2019-Oct-06 04:00N 49°25' W 000°16'816.2
2019-Oct-06 03:31N 49°33' W 000°21'816.1
2019-Oct-06 03:00N 49°40' W 000°26'815.6
2019-Oct-06 02:30N 49°48' W 000°30'5714.8
2019-Oct-05 22:40N 50°42' W 000°58'214.9
2019-Oct-05 22:30N 50°43' W 001°00'612.9
2019-Oct-05 22:00N 50°48' W 001°07'1 1.7
2019-Oct-05 21:30N 50°49' W 001°06'0 0.0
2019-Oct-05 21:01N 50°49' W 001°06'0 0.0
2019-Oct-05 20:30N 50°49' W 001°06'1 1.9
2019-Oct-05 20:01N 50°48' W 001°07'714.0
2019-Oct-05 19:30N 50°42' W 001°01'4817.2
2019-Oct-05 16:43N 49°57' W 000°35'418.7
2019-Oct-05 16:30N 49°53' W 000°33'918.6
2019-Oct-05 16:00N 49°45' W 000°27'1019.6
2019-Oct-05 15:30N 49°36' W 000°22'1019.6
2019-Oct-05 15:00N 49°26' W 000°17'917.3
2019-Oct-05 14:30N 49°18' W 000°15'1 1.1
2019-Oct-05 14:00N 49°17' W 000°15'0 0.0
2019-Oct-05 13:30N 49°17' W 000°15'0 0.0
2019-Oct-05 13:00N 49°17' W 000°15'5 9.9
2019-Oct-05 12:31N 49°22' W 000°14'918.7
2019-Oct-05 12:01N 49°31' W 000°21'918.9
2019-Oct-05 11:30N 49°39' W 000°28'919.0
2019-Oct-05 11:00N 49°48' W 000°33'5618.6
2019-Oct-05 08:01N 50°41' W 000°58'117.7
2019-Oct-05 07:57N 50°42' W 000°59'716.6
2019-Oct-05 07:31N 50°48' W 001°07'1 2.6
2019-Oct-05 07:01N 50°49' W 001°06'  

Dump ship's entire track history